Time;durP1;ratioP1;P1;durP2;ratioP2;P2;SDS_P1;SDS_P2;PMS_P1;PMS_P2;Temp;Humidity;BMP_temperature;BMP_pressure;BME280_temperature;BME280_humidity;BME280_pressure;Samples;Min_cycle;Max_cycle;Signal;HPM_P1;HPM_P2
2023/04/08 00:00:11;;;;;;;25.88;15.63;;;3.00;99.90;;;;;;20746448;28;20033;-47
2023/04/08 00:10:14;;;;;;;27.33;14.68;;;3.20;99.90;;;;;;20744365;28;20041;-47
2023/04/08 00:20:16;;;;;;;27.27;14.43;;;3.20;99.90;;;;;;20744813;28;20050;-47
2023/04/08 00:30:18;;;;;;;28.08;14.50;;;2.70;99.90;;;;;;20742631;28;20103;-48
2023/04/08 00:40:20;;;;;;;27.98;15.05;;;2.60;99.90;;;;;;20743379;28;20121;-51
2023/04/08 00:50:22;;;;;;;28.20;15.82;;;2.60;99.90;;;;;;20741509;28;20483;-48
2023/04/08 01:00:25;;;;;;;32.28;17.17;;;2.80;99.90;;;;;;20742003;28;20042;-49
2023/04/08 01:10:30;;;;;;;26.70;16.17;;;2.70;99.90;;;;;;20741223;28;20037;-50
2023/04/08 01:20:34;;;;;;;22.73;12.70;;;2.70;99.90;;;;;;20740641;28;20436;-57
2023/04/08 01:30:39;;;;;;;24.52;12.80;;;2.70;99.90;;;;;;20739965;28;20030;-50
2023/04/08 01:40:42;;;;;;;22.15;12.55;;;2.50;99.90;;;;;;20738292;28;20368;-48
2023/04/08 01:50:44;;;;;;;21.95;12.52;;;2.20;99.90;;;;;;20739197;28;20395;-50
2023/04/08 02:00:50;;;;;;;21.70;13.20;;;1.70;99.90;;;;;;20748421;28;20037;-48
2023/04/08 02:10:52;;;;;;;23.52;13.10;;;2.10;99.90;;;;;;20753613;28;20399;-50
2023/04/08 02:21:00;;;;;;;19.75;11.85;;;2.60;99.90;;;;;;20752912;28;20058;-46
2023/04/08 02:31:04;;;;;;;17.80;11.35;;;2.30;99.90;;;;;;20753432;28;20045;-47
2023/04/08 02:41:06;;;;;;;19.90;11.15;;;1.70;99.90;;;;;;20752601;28;20034;-47
2023/04/08 02:51:08;;;;;;;22.95;13.30;;;1.30;99.90;;;;;;20750975;28;20065;-48
2023/04/08 03:01:10;;;;;;;20.33;12.10;;;1.20;99.90;;;;;;20750891;28;20049;-46
2023/04/08 03:11:11;;;;;;;19.85;11.25;;;1.10;99.90;;;;;;20750402;28;20048;-50
2023/04/08 03:21:13;;;;;;;17.25;9.85;;;1.20;99.90;;;;;;20749734;28;20069;-58
2023/04/08 03:31:15;;;;;;;13.48;8.43;;;1.10;99.90;;;;;;20748864;28;20100;-47
2023/04/08 03:41:16;;;;;;;13.48;8.23;;;1.20;99.90;;;;;;20747979;28;20092;-46
2023/04/08 03:51:18;;;;;;;15.88;9.27;;;1.20;99.90;;;;;;20747450;28;20060;-49
2023/04/08 04:01:20;;;;;;;14.60;8.55;;;1.10;99.90;;;;;;20746342;28;20530;-48
2023/04/08 04:11:21;;;;;;;17.27;9.88;;;0.70;99.90;;;;;;20745583;28;20483;-47
2023/04/08 04:21:23;;;;;;;18.13;9.82;;;0.40;99.90;;;;;;20744356;28;20084;-45
2023/04/08 04:31:25;;;;;;;16.42;9.23;;;0.50;99.90;;;;;;20744179;28;20114;-46
2023/04/08 04:41:27;;;;;;;15.25;8.32;;;0.60;99.90;;;;;;20743060;28;20041;-48
2023/04/08 04:51:31;;;;;;;17.33;8.85;;;0.60;99.90;;;;;;20742857;28;20104;-47
2023/04/08 05:01:34;;;;;;;17.80;9.68;;;0.50;99.90;;;;;;20741925;28;20038;-48
2023/04/08 05:11:35;;;;;;;22.20;11.65;;;0.60;99.90;;;;;;20741022;28;20041;-48
2023/04/08 05:21:37;;;;;;;21.08;10.80;;;0.90;99.90;;;;;;20740927;28;20041;-50
2023/04/08 05:31:39;;;;;;;21.65;11.70;;;1.20;99.90;;;;;;20739277;28;20487;-48
2023/04/08 05:41:44;;;;;;;23.67;12.13;;;1.60;99.90;;;;;;20738522;28;20038;-51
2023/04/08 05:51:46;;;;;;;20.35;11.48;;;1.90;99.90;;;;;;20740352;28;20068;-58
2023/04/08 06:01:47;;;;;;;20.10;12.15;;;2.30;99.90;;;;;;20737108;28;20034;-47
2023/04/08 06:11:49;;;;;;;21.52;12.65;;;2.70;99.90;;;;;;20736436;28;20042;-51
2023/04/08 06:21:51;;;;;;;20.23;12.30;;;3.30;99.90;;;;;;20738269;28;20391;-48
2023/04/08 06:31:52;;;;;;;24.65;13.38;;;4.00;99.90;;;;;;20737491;28;20045;-46
2023/04/08 06:41:54;;;;;;;22.60;12.80;;;4.70;99.90;;;;;;20739814;28;20033;-48
2023/04/08 06:52:12;;;;;;;22.25;13.38;;;5.50;99.90;;;;;;20751064;28;20088;-47
2023/04/08 07:02:14;;;;;;;22.10;13.40;;;6.00;99.90;;;;;;20751412;28;20116;-50
2023/04/08 07:12:16;;;;;;;21.77;14.23;;;6.20;99.90;;;;;;20750153;28;20053;-47
2023/04/08 07:22:18;;;;;;;22.77;12.88;;;6.40;99.90;;;;;;20749887;28;20546;-51
2023/04/08 07:32:20;;;;;;;20.17;12.88;;;6.70;99.90;;;;;;20745967;28;20080;-47
2023/04/08 07:42:22;;;;;;;21.85;13.60;;;7.60;99.90;;;;;;20747622;28;20041;-49
2023/04/08 07:52:24;;;;;;;20.85;13.45;;;7.60;99.90;;;;;;20746297;28;20034;-51
2023/04/08 08:02:25;;;;;;;20.60;13.07;;;7.60;99.90;;;;;;20745899;28;20088;-58
2023/04/08 08:12:27;;;;;;;20.65;13.25;;;8.20;99.90;;;;;;20745527;28;20054;-51
2023/04/08 08:22:28;;;;;;;20.50;12.82;;;9.10;99.90;;;;;;20745333;28;20033;-50
2023/04/08 08:32:30;;;;;;;22.13;13.50;;;9.70;99.90;;;;;;20743851;28;20034;-49
2023/04/08 08:42:32;;;;;;;19.45;12.85;;;10.60;99.90;;;;;;20743024;28;20053;-50
2023/04/08 08:52:33;;;;;;;19.92;14.02;;;11.30;99.90;;;;;;20741415;28;20049;-59
2023/04/08 09:02:35;;;;;;;17.90;13.05;;;11.50;99.90;;;;;;20742967;28;20038;-50
2023/04/08 09:12:53;;;;;;;20.38;13.85;;;11.80;98.60;;;;;;20726604;28;20049;-51
2023/04/08 09:22:55;;;;;;;20.70;14.00;;;12.30;96.40;;;;;;20740595;28;20030;-47
2023/04/08 09:32:57;;;;;;;20.05;13.25;;;12.00;97.70;;;;;;20740001;28;20107;-51
2023/04/08 09:43:04;;;;;;;23.63;14.15;;;12.30;98.30;;;;;;20739236;28;20099;-48
2023/04/08 09:53:18;;;;;;;21.35;14.02;;;12.90;98.30;;;;;;20738874;28;20041;-47
2023/04/08 10:03:30;;;;;;;19.75;13.93;;;13.10;97.40;;;;;;20739005;28;20106;-47
2023/04/08 10:13:32;;;;;;;23.55;14.75;;;13.50;95.90;;;;;;20738035;28;20045;-48
2023/04/08 10:24:05;;;;;;;20.35;14.82;;;13.60;94.20;;;;;;20751543;28;20073;-50
2023/04/08 10:34:18;;;;;;;20.30;14.20;;;13.90;94.90;;;;;;20753565;28;20556;-58
2023/04/08 10:44:26;;;;;;;25.10;14.25;;;12.70;94.60;;;;;;20752305;28;20034;-51
2023/04/08 10:54:28;;;;;;;21.55;13.55;;;12.00;94.50;;;;;;20745248;28;20042;-52
2023/04/08 11:04:30;;;;;;;24.02;14.63;;;12.50;94.00;;;;;;20745478;28;20038;-51
2023/04/08 11:14:32;;;;;;;23.13;15.00;;;12.50;95.20;;;;;;20734370;28;20348;-50
2023/04/08 11:24:35;;;;;;;22.73;15.77;;;12.40;94.90;;;;;;20727069;28;20038;-60
2023/04/08 11:34:39;;;;;;;26.88;17.50;;;12.20;95.90;;;;;;20689800;28;20451;-48
2023/04/08 11:44:44;;;;;;;25.95;17.85;;;11.00;96.10;;;;;;20748188;28;20105;-50
2023/04/08 11:54:47;;;;;;;29.05;18.45;;;10.30;98.00;;;;;;20747280;28;20092;-51
2023/04/08 12:04:49;;;;;;;27.67;18.60;;;10.20;98.70;;;;;;20746983;28;20038;-52
2023/04/08 12:14:54;;;;;;;26.30;18.17;;;11.30;99.00;;;;;;20745482;28;20168;-50
2023/04/08 12:24:56;;;;;;;32.55;19.25;;;12.80;96.70;;;;;;20744711;28;20045;-50
2023/04/08 12:34:57;;;;;;;30.98;20.23;;;12.00;95.60;;;;;;20744473;28;20053;-62
2023/04/08 12:44:59;;;;;;;31.38;19.88;;;10.20;97.40;;;;;;20742810;28;20049;-63
2023/04/08 12:55:01;;;;;;;28.73;19.08;;;10.50;99.80;;;;;;20742156;28;20038;-50
2023/04/08 13:05:02;;;;;;;28.90;18.80;;;12.20;97.10;;;;;;20742464;28;20049;-50
2023/04/08 13:15:05;;;;;;;28.23;18.70;;;11.70;95.90;;;;;;20739739;28;20048;-49
2023/04/08 13:25:07;;;;;;;31.45;19.40;;;10.40;97.20;;;;;;20740542;28;20084;-51
2023/04/08 13:35:09;;;;;;;30.08;18.45;;;9.80;99.00;;;;;;20740312;28;20399;-61
2023/04/08 13:45:11;;;;;;;29.13;18.20;;;10.10;97.70;;;;;;20739699;28;20391;-50
2023/04/08 13:55:14;;;;;;;29.85;17.95;;;9.90;97.60;;;;;;20738280;28;20075;-51
2023/04/08 14:05:16;;;;;;;27.30;16.92;;;9.40;98.10;;;;;;20738608;28;20034;-50
2023/04/08 14:15:18;;;;;;;31.13;17.98;;;8.60;98.70;;;;;;20737836;28;20045;-54
2023/04/08 14:25:20;;;;;;;30.38;17.60;;;7.90;99.90;;;;;;20737583;28;20030;-52
2023/04/08 14:35:21;;;;;;;27.48;17.75;;;7.20;99.90;;;;;;20737421;28;20542;-62
2023/04/08 14:45:23;;;;;;;29.27;17.08;;;7.00;99.90;;;;;;20737053;28;20108;-49
2023/04/08 14:55:27;;;;;;;27.63;16.73;;;7.10;99.90;;;;;;20736778;28;20030;-55
2023/04/08 15:05:28;;;;;;;28.83;17.45;;;7.00;99.90;;;;;;20743090;28;20364;-62
2023/04/08 15:15:30;;;;;;;34.58;21.10;;;6.50;99.90;;;;;;20750276;28;20104;-49
2023/04/08 15:25:32;;;;;;;37.83;21.80;;;5.80;99.90;;;;;;20748118;28;20424;-59
2023/04/08 15:35:33;;;;;;;39.33;22.58;;;5.30;99.90;;;;;;20749418;28;20041;-60
2023/04/08 15:45:37;;;;;;;42.38;23.27;;;5.10;99.90;;;;;;20748172;28;20030;-47
2023/04/08 15:55:40;;;;;;;38.78;21.27;;;4.60;99.90;;;;;;20746238;28;20064;-49
2023/04/08 16:05:42;;;;;;;38.25;20.65;;;4.20;99.90;;;;;;20760362;28;20483;-48
2023/04/08 16:15:43;;;;;;;36.85;21.77;;;3.90;99.90;;;;;;20742850;28;20058;-46
2023/04/08 16:25:45;;;;;;;35.85;20.10;;;3.70;99.90;;;;;;20744811;28;20034;-46
2023/04/08 16:35:49;;;;;;;38.67;21.50;;;3.60;99.90;;;;;;20744165;28;20084;-46
2023/04/08 16:45:51;;;;;;;36.72;20.48;;;3.60;99.90;;;;;;20740790;28;20428;-52
2023/04/08 16:55:53;;;;;;;44.90;23.75;;;3.60;99.90;;;;;;20742308;28;20034;-47
2023/04/08 17:06:08;;;;;;;49.50;23.80;;;3.20;99.90;;;;;;20742431;28;20463;-49
2023/04/08 17:16:14;;;;;;;52.25;25.58;;;2.90;99.90;;;;;;20741199;28;20046;-48
2023/04/08 17:26:16;;;;;;;49.92;24.88;;;2.70;99.90;;;;;;20740854;28;20034;-49
2023/04/08 17:36:18;;;;;;;48.05;25.02;;;2.80;99.90;;;;;;20722056;28;20037;-49
2023/04/08 17:46:20;;;;;;;43.08;22.48;;;2.80;99.90;;;;;;20738334;28;20030;-49
2023/04/08 17:56:22;;;;;;;50.10;25.33;;;2.50;99.90;;;;;;20739154;28;20084;-51
2023/04/08 18:06:24;;;;;;;60.50;27.38;;;2.10;99.90;;;;;;20738963;28;20050;-51
2023/04/08 18:16:26;;;;;;;70.35;30.63;;;1.90;99.90;;;;;;20736698;28;20124;-52
2023/04/08 18:26:28;;;;;;;69.40;30.65;;;1.80;99.90;;;;;;20736469;28;20088;-62
2023/04/08 18:36:30;;;;;;;64.13;28.58;;;1.90;99.90;;;;;;20736951;28;20353;-61
2023/04/08 18:46:32;;;;;;;78.25;33.45;;;2.10;99.90;;;;;;20753400;28;20037;-61
2023/04/08 18:56:34;;;;;;;70.57;29.77;;;2.30;99.90;;;;;;20751716;28;20041;-61
2023/04/08 19:06:36;;;;;;;50.97;23.98;;;2.30;99.90;;;;;;20747636;28;20141;-49
2023/04/08 19:16:38;;;;;;;50.22;24.75;;;2.10;99.90;;;;;;20750027;28;20076;-49
2023/04/08 19:26:40;;;;;;;53.35;24.02;;;2.10;99.90;;;;;;20750701;28;20370;-52
2023/04/08 19:36:41;;;;;;;39.58;21.23;;;2.10;99.90;;;;;;20747330;28;20038;-48
2023/04/08 19:46:43;;;;;;;41.22;20.60;;;2.20;99.90;;;;;;20748550;28;20344;-48
2023/04/08 19:56:44;;;;;;;39.25;20.70;;;2.30;99.90;;;;;;20746180;28;20042;-49
2023/04/08 20:06:47;;;;;;;36.75;19.73;;;2.30;99.90;;;;;;20746881;28;20030;-46
2023/04/08 20:16:48;;;;;;;33.13;19.17;;;2.20;99.90;;;;;;20745444;28;20046;-49
2023/04/08 20:26:51;;;;;;;43.05;20.90;;;2.40;99.90;;;;;;20744809;28;20034;-60
2023/04/08 20:36:52;;;;;;;35.72;19.67;;;2.40;99.90;;;;;;20744676;28;20482;-52
2023/04/08 20:46:54;;;;;;;34.28;19.45;;;2.50;99.90;;;;;;20743507;28;20537;-51
2023/04/08 20:56:55;;;;;;;28.55;16.63;;;2.60;99.90;;;;;;20742910;28;20029;-51
2023/04/08 21:06:57;;;;;;;27.13;16.25;;;2.70;99.90;;;;;;20742093;28;20419;-48
2023/04/08 21:16:59;;;;;;;31.00;17.92;;;2.80;99.90;;;;;;20741257;28;20056;-55
2023/04/08 21:27:01;;;;;;;25.15;15.68;;;2.80;99.90;;;;;;20740731;28;20554;-48
2023/04/08 21:37:03;;;;;;;29.42;16.52;;;2.90;99.90;;;;;;20740504;28;20045;-51
2023/04/08 21:47:04;;;;;;;23.90;15.15;;;2.80;99.90;;;;;;20739585;28;20065;-52
2023/04/08 21:57:06;;;;;;;22.63;14.20;;;2.90;99.90;;;;;;20739234;28;20030;-47
2023/04/08 22:07:08;;;;;;;19.95;12.90;;;2.90;99.90;;;;;;20738656;28;20112;-49
2023/04/08 22:17:10;;;;;;;19.35;12.68;;;3.00;99.90;;;;;;20747107;28;20046;-48
2023/04/08 22:27:12;;;;;;;21.63;12.57;;;3.00;99.90;;;;;;20754241;28;20048;-51
2023/04/08 22:37:13;;;;;;;20.45;12.80;;;2.90;99.90;;;;;;20753805;28;20030;-48
2023/04/08 22:47:16;;;;;;;19.70;12.00;;;2.80;99.90;;;;;;20753965;28;20084;-49
2023/04/08 22:57:18;;;;;;;18.13;11.20;;;2.80;99.90;;;;;;20752024;28;20418;-51
2023/04/08 23:07:20;;;;;;;19.00;11.15;;;2.70;99.90;;;;;;20751842;28;20026;-61
2023/04/08 23:17:21;;;;;;;23.83;13.77;;;2.60;99.90;;;;;;20750727;28;20077;-48
2023/04/08 23:27:23;;;;;;;20.63;13.15;;;2.40;99.90;;;;;;20749593;28;20018;-47
2023/04/08 23:37:25;;;;;;;23.38;12.88;;;2.30;99.90;;;;;;20749416;28;20491;-51
2023/04/08 23:47:27;;;;;;;26.17;14.85;;;2.20;99.90;;;;;;20748503;28;20064;-47
2023/04/08 23:57:29;;;;;;;25.60;14.43;;;2.00;99.90;;;;;;20747491;28;20435;-45
